createdAt,value
2017-05-15T00:00:00.752Z,17.38
2017-05-15T00:02:29.678Z,17.60
2017-05-15T00:04:58.599Z,19.26
2017-05-15T00:07:27.607Z,17.24
2017-05-15T00:09:56.832Z,16.56
2017-05-15T00:12:25.725Z,20.48
2017-05-15T00:14:55.390Z,20.82
2017-05-15T00:17:24.320Z,18.82
2017-05-15T00:19:54.006Z,18.54
2017-05-15T00:22:22.906Z,18.84
2017-05-15T00:24:51.834Z,19.52
2017-05-15T00:27:21.473Z,17.94
2017-05-15T00:29:50.434Z,19.56
2017-05-15T00:32:20.107Z,18.84
2017-05-15T00:34:49.002Z,19.14
2017-05-15T00:37:17.930Z,19.34
2017-05-15T00:39:46.834Z,20.50
2017-05-15T00:42:15.757Z,17.90
2017-05-15T00:44:44.702Z,17.92
2017-05-15T00:47:13.603Z,19.02
2017-05-15T00:49:42.517Z,19.14
2017-05-15T00:52:11.433Z,18.68
2017-05-15T00:54:40.341Z,21.58
2017-05-15T00:57:09.986Z,19.62
2017-05-15T00:59:38.953Z,18.94
2017-05-15T01:02:07.865Z,15.22
2017-05-15T01:04:37.375Z,17.12
2017-05-15T01:07:06.351Z,16.70
2017-05-15T01:09:35.256Z,15.88
2017-05-15T01:12:04.195Z,14.62
2017-05-15T01:14:33.871Z,16.52
2017-05-15T01:17:02.790Z,16.68
2017-05-15T01:19:32.482Z,12.28
2017-05-15T01:22:01.383Z,13.40
2017-05-15T01:24:30.297Z,14.62
2017-05-15T01:27:00.216Z,15.30
2017-05-15T01:29:29.142Z,13.06
2017-05-15T01:31:58.044Z,11.64
2017-05-15T01:34:26.995Z,12.76
2017-05-15T01:36:56.546Z,12.60
2017-05-15T01:39:25.458Z,12.44
2017-05-15T01:41:54.433Z,13.36
2017-05-15T01:44:23.333Z,15.38
2017-05-15T01:46:52.213Z,17.06
2017-05-15T01:49:21.134Z,15.80
2017-05-15T01:51:50.814Z,16.62
2017-05-15T01:54:19.748Z,16.90
2017-05-15T01:56:48.646Z,16.50
2017-05-15T01:59:17.628Z,17.16
2017-05-15T02:01:46.557Z,16.58
2017-05-15T02:04:15.454Z,15.96
2017-05-15T02:06:44.370Z,15.62
2017-05-15T02:09:13.286Z,15.66
2017-05-15T02:11:42.975Z,14.38
2017-05-15T02:14:11.945Z,15.22
2017-05-15T02:16:40.836Z,16.14
2017-05-15T02:19:09.771Z,15.50
2017-05-15T02:21:39.423Z,15.60
2017-05-15T02:24:08.330Z,16.46
2017-05-15T02:26:37.226Z,15.26
2017-05-15T02:29:06.159Z,15.84
2017-05-15T02:31:35.077Z,18.10
2017-05-15T02:34:03.993Z,17.32
2017-05-15T02:36:32.909Z,16.98
2017-05-15T02:39:02.546Z,17.90
2017-05-15T02:41:31.475Z,17.16
2017-05-15T02:44:00.381Z,18.64
2017-05-15T02:46:29.314Z,16.32
2017-05-15T02:48:58.222Z,18.04
2017-05-15T02:51:27.146Z,18.44
2017-05-15T02:53:56.055Z,18.92
2017-05-15T02:56:25.726Z,21.54
2017-05-15T02:58:54.636Z,19.96
2017-05-15T03:01:23.578Z,19.54
2017-05-15T03:03:52.478Z,18.88
2017-05-15T03:06:21.397Z,20.40
2017-05-15T03:08:50.314Z,17.16
2017-05-15T03:11:19.238Z,17.24
2017-05-15T03:13:48.909Z,20.04
2017-05-15T03:16:17.874Z,21.34
2017-05-15T03:18:46.921Z,18.36
2017-05-15T03:21:16.576Z,17.86
2017-05-15T03:23:45.510Z,17.50
2017-05-15T03:26:15.174Z,17.40
2017-05-15T03:28:44.144Z,15.68
2017-05-15T03:31:13.037Z,15.82
2017-05-15T03:33:41.966Z,15.86
2017-05-15T03:36:10.903Z,16.74
2017-05-15T03:38:39.823Z,16.26
2017-05-15T03:41:08.794Z,16.22
2017-05-15T03:43:38.594Z,16.42
2017-05-15T03:46:07.522Z,17.12
2017-05-15T03:48:36.430Z,15.88
2017-05-15T03:51:05.365Z,16.66
2017-05-15T03:53:35.021Z,15.18
2017-05-15T03:56:03.936Z,14.72
2017-05-15T03:58:32.835Z,15.02
2017-05-15T04:01:02.468Z,15.40
2017-05-15T04:03:31.403Z,21.00
2017-05-15T04:06:00.379Z,16.94
2017-05-15T04:08:29.324Z,18.18
2017-05-15T04:10:58.992Z,19.04
2017-05-15T04:13:28.019Z,18.80
2017-05-15T04:15:57.696Z,22.60
2017-05-15T04:18:26.594Z,20.58
2017-05-15T04:20:55.498Z,21.28
2017-05-15T04:23:24.430Z,18.16
2017-05-15T04:25:53.334Z,15.46
2017-05-15T04:28:22.255Z,19.32
2017-05-15T04:30:51.222Z,18.28
2017-05-15T04:33:20.135Z,17.62
2017-05-15T04:35:49.071Z,19.56
2017-05-15T04:38:17.958Z,18.28
2017-05-15T04:40:46.870Z,18.16
2017-05-15T04:43:15.794Z,16.74
2017-05-15T04:45:44.730Z,16.90
2017-05-15T04:48:14.383Z,16.02
2017-05-15T04:50:43.280Z,17.22
2017-05-15T04:53:12.194Z,19.84
2017-05-15T04:55:41.121Z,19.32
2017-05-15T04:58:10.054Z,20.42
2017-05-15T05:00:39.789Z,19.14
2017-05-15T05:03:08.749Z,17.52
2017-05-15T05:05:37.703Z,21.74
2017-05-15T05:08:07.349Z,17.26
2017-05-15T05:10:36.254Z,19.60
2017-05-15T05:13:05.196Z,25.32
2017-05-15T05:15:34.831Z,19.84
2017-05-15T05:18:03.752Z,21.12
2017-05-15T05:20:55.150Z,31.24
2017-05-15T05:23:35.831Z,20.82
2017-05-15T05:26:16.663Z,22.60
2017-05-15T05:28:57.445Z,24.78
2017-05-15T05:31:48.735Z,19.56
2017-05-15T05:34:25.437Z,21.12
2017-05-15T05:37:13.067Z,21.46
2017-05-15T05:40:05.579Z,21.98
2017-05-15T05:42:58.200Z,22.30
2017-05-15T05:45:27.082Z,22.20
2017-05-15T05:47:56.002Z,23.48
2017-05-15T05:50:25.672Z,36.96
2017-05-15T05:52:54.589Z,20.74
2017-05-15T05:55:35.441Z,22.08
2017-05-15T05:58:04.365Z,22.60
2017-05-15T06:00:44.010Z,24.62
2017-05-15T06:03:33.596Z,21.16
2017-05-15T06:06:14.519Z,20.84
2017-05-15T06:08:55.427Z,19.80
2017-05-15T06:11:51.095Z,20.74
2017-05-15T06:14:31.950Z,19.84
2017-05-15T06:20:02.407Z,17.72
2017-05-15T06:22:53.926Z,16.66
2017-05-15T06:25:49.535Z,16.02
2017-05-15T06:28:18.422Z,16.14
2017-05-15T06:30:47.463Z,15.80
2017-05-15T06:33:16.322Z,13.88
2017-05-15T06:35:46.121Z,15.44
2017-05-15T06:38:26.949Z,15.98
2017-05-15T06:41:07.704Z,14.36
2017-05-15T06:43:37.319Z,15.08
2017-05-15T06:46:06.275Z,14.64
2017-05-15T06:48:35.150Z,15.26
2017-05-15T06:51:04.679Z,13.34
2017-05-15T06:53:33.595Z,13.58
2017-05-15T06:56:02.487Z,14.82
2017-05-15T06:58:31.379Z,14.64
2017-05-15T07:01:00.281Z,15.60
2017-05-15T07:03:29.169Z,13.72
2017-05-15T07:05:58.034Z,13.54
2017-05-15T07:08:26.414Z,15.58
2017-05-15T07:10:55.385Z,13.46
2017-05-15T07:13:24.287Z,13.63
2017-05-15T07:15:53.230Z,12.96
2017-05-15T07:18:22.146Z,13.54
2017-05-15T07:20:51.110Z,13.86
2017-05-15T07:23:19.282Z,13.18
2017-05-15T07:25:48.188Z,11.04
2017-05-15T07:28:17.855Z,14.56
2017-05-15T07:30:46.763Z,14.26
2017-05-15T07:33:15.697Z,15.18
2017-05-15T07:35:44.602Z,11.70
2017-05-15T07:38:13.535Z,15.26
2017-05-15T07:40:42.568Z,17.08
2017-05-15T07:43:11.497Z,11.14
2017-05-15T07:45:40.466Z,9.48
2017-05-15T07:48:09.393Z,9.38
2017-05-15T07:50:38.280Z,15.52
2017-05-15T07:53:07.229Z,11.82
2017-05-15T07:55:36.274Z,16.34
2017-05-15T07:58:05.179Z,9.46
2017-05-15T08:00:34.103Z,9.30
2017-05-15T08:03:03.163Z,10.52
2017-05-15T08:05:33.014Z,9.42
2017-05-15T08:08:01.910Z,10.44
2017-05-15T08:10:30.823Z,13.86
2017-05-15T08:13:00.606Z,10.52
2017-05-15T08:15:29.515Z,9.90
2017-05-15T08:17:58.408Z,14.40
2017-05-15T08:20:27.499Z,10.88
2017-05-15T08:22:56.431Z,9.38
2017-05-15T08:25:26.061Z,10.70
2017-05-15T08:27:55.003Z,10.02
2017-05-15T08:30:23.897Z,9.08
2017-05-15T08:32:52.834Z,9.58
2017-05-15T08:35:22.474Z,9.34
2017-05-15T08:37:51.391Z,10.48
2017-05-15T08:40:20.320Z,13.30
2017-05-15T08:42:49.982Z,15.64
2017-05-15T08:45:18.886Z,11.24
2017-05-15T08:47:47.813Z,9.48
2017-05-15T08:50:16.741Z,10.70
2017-05-15T08:52:45.633Z,11.16
2017-05-15T08:55:14.560Z,11.68
2017-05-15T08:57:43.472Z,8.68
2017-05-15T09:00:13.114Z,13.76
2017-05-15T09:02:42.023Z,12.76
2017-05-15T09:05:10.946Z,9.36
2017-05-15T09:07:39.863Z,12.14
2017-05-15T09:10:09.494Z,12.22
2017-05-15T09:12:38.422Z,9.66
2017-05-15T09:15:07.322Z,8.70
2017-05-15T09:17:36.219Z,9.44
2017-05-15T09:20:05.890Z,8.28
2017-05-15T09:22:34.797Z,13.72
2017-05-15T09:25:03.713Z,8.10
2017-05-15T09:27:33.358Z,8.32
2017-05-15T09:30:02.262Z,8.26
2017-05-15T09:32:31.243Z,8.18
2017-05-15T09:35:00.162Z,13.10
2017-05-15T09:37:29.073Z,9.54
2017-05-15T09:39:58.167Z,11.88
2017-05-15T09:42:27.045Z,8.86
2017-05-15T09:44:56.005Z,11.98
2017-05-15T09:47:24.972Z,7.78
2017-05-15T09:49:53.877Z,8.50
2017-05-15T09:52:22.815Z,7.52
2017-05-15T09:54:51.759Z,7.98
2017-05-15T09:57:20.710Z,9.44
2017-05-15T09:59:49.634Z,8.00
2017-05-15T10:02:19.278Z,8.44
2017-05-15T10:04:48.204Z,8.44
2017-05-15T10:07:17.146Z,6.98
2017-05-15T10:09:46.794Z,7.94
2017-05-15T10:12:15.730Z,11.28
2017-05-15T10:14:45.394Z,9.28
2017-05-15T10:17:14.313Z,9.02
2017-05-15T10:19:43.254Z,7.14
2017-05-15T10:22:12.198Z,6.68
2017-05-15T10:24:41.093Z,8.78
2017-05-15T10:27:09.981Z,8.66
2017-05-15T10:29:38.878Z,9.68
2017-05-15T10:32:07.822Z,6.92
2017-05-15T10:34:36.738Z,7.38
2017-05-15T10:37:05.851Z,10.34
2017-05-15T10:39:34.793Z,10.90
2017-05-15T10:42:03.705Z,6.86
2017-05-15T10:44:32.607Z,7.72
2017-05-15T10:47:01.523Z,6.46
2017-05-15T10:49:31.180Z,11.22
2017-05-15T10:52:00.754Z,5.84
2017-05-15T10:54:30.422Z,7.50
2017-05-15T10:56:59.326Z,8.66
2017-05-15T10:59:28.246Z,9.44
2017-05-15T11:01:57.973Z,7.48
2017-05-15T11:04:27.012Z,10.14
2017-05-15T11:06:55.936Z,6.20
2017-05-15T11:09:24.836Z,6.40
2017-05-15T11:11:53.745Z,11.44
2017-05-15T11:14:23.385Z,8.18
2017-05-15T11:16:52.362Z,8.92
2017-05-15T11:19:21.282Z,6.98
2017-05-15T11:21:50.185Z,11.04
2017-05-15T11:24:20.003Z,5.42
2017-05-15T11:26:48.910Z,9.04
2017-05-15T11:29:17.851Z,9.80
2017-05-15T11:31:46.807Z,8.30
2017-05-15T11:34:15.777Z,5.88
2017-05-15T11:36:45.389Z,9.14
2017-05-15T11:39:15.236Z,5.84
2017-05-15T11:41:44.867Z,5.14
2017-05-15T11:44:13.783Z,6.60
2017-05-15T11:46:42.709Z,5.66
2017-05-15T11:49:12.358Z,6.64
2017-05-15T11:51:41.255Z,6.32
2017-05-15T11:54:10.170Z,4.54
2017-05-15T11:56:39.090Z,5.16
2017-05-15T11:59:09.069Z,4.74
2017-05-15T12:01:37.945Z,6.22
2017-05-15T12:04:06.858Z,6.70
2017-05-15T12:06:35.798Z,7.14
2017-05-15T12:09:04.730Z,4.12
2017-05-15T12:11:33.627Z,4.44
2017-05-15T12:14:02.572Z,6.42
2017-05-15T12:16:31.471Z,3.96
2017-05-15T12:19:00.362Z,6.36
2017-05-15T12:21:29.322Z,5.74
2017-05-15T12:23:58.253Z,5.82
2017-05-15T12:26:27.195Z,4.82
2017-05-15T12:28:56.113Z,4.58
2017-05-15T12:31:25.006Z,6.26
2017-05-15T12:33:53.903Z,6.96
2017-05-15T12:36:22.843Z,3.88
2017-05-15T12:38:51.747Z,6.02
2017-05-15T12:41:21.410Z,6.60
2017-05-15T12:43:50.334Z,5.74
2017-05-15T12:46:20.000Z,9.72
2017-05-15T12:48:48.898Z,6.72
2017-05-15T12:51:17.806Z,4.24
2017-05-15T12:53:46.725Z,4.62
2017-05-15T12:56:16.361Z,10.08
2017-05-15T12:58:45.304Z,6.56
2017-05-15T13:01:14.190Z,5.16
2017-05-15T13:03:43.135Z,3.82
2017-05-15T13:06:12.078Z,6.32
2017-05-15T13:08:41.029Z,4.28
2017-05-15T13:11:09.921Z,3.08
2017-05-15T13:13:38.815Z,7.52
2017-05-15T13:16:07.774Z,2.92
2017-05-15T13:18:36.674Z,4.92
2017-05-15T13:21:06.102Z,2.80
2017-05-15T13:23:35.026Z,4.18
2017-05-15T13:26:04.019Z,3.50
2017-05-15T13:28:32.960Z,5.68
2017-05-15T13:31:02.571Z,4.52
2017-05-15T13:33:31.575Z,6.84
2017-05-15T13:36:00.514Z,5.90
2017-05-15T13:38:30.179Z,4.32
2017-05-15T13:40:59.082Z,5.28
2017-05-15T13:43:27.995Z,8.78
2017-05-15T13:45:56.899Z,4.10
2017-05-15T13:48:26.742Z,5.86
2017-05-15T13:50:55.677Z,5.16
2017-05-15T13:53:24.584Z,2.62
2017-05-15T13:55:54.298Z,3.36
2017-05-15T13:58:24.024Z,8.90
2017-05-15T14:00:53.661Z,3.84
2017-05-15T14:03:23.343Z,3.68
2017-05-15T14:05:52.286Z,6.10
2017-05-15T14:08:21.447Z,5.32
2017-05-15T14:10:50.314Z,5.50
2017-05-15T14:13:19.233Z,7.50
2017-05-15T14:15:48.871Z,6.06
2017-05-15T14:18:17.787Z,3.02
2017-05-15T14:20:46.718Z,2.84
2017-05-15T14:23:16.362Z,5.30
2017-05-15T14:25:45.271Z,5.52
2017-05-15T14:28:14.197Z,3.16
2017-05-15T14:30:43.834Z,5.96
2017-05-15T14:33:12.732Z,4.28
2017-05-15T14:35:41.654Z,4.26
2017-05-15T14:38:10.545Z,3.14
2017-05-15T14:40:39.488Z,5.02
2017-05-15T14:43:08.447Z,3.82
2017-05-15T14:45:38.108Z,2.86
2017-05-15T14:48:06.992Z,3.46
2017-05-15T14:50:35.912Z,6.98
2017-05-15T14:53:04.832Z,3.38
2017-05-15T14:55:33.752Z,3.62
2017-05-15T14:58:02.683Z,3.10
2017-05-15T15:00:31.591Z,5.38
2017-05-15T15:03:00.570Z,4.24
2017-05-15T15:05:29.461Z,4.66
2017-05-15T15:07:59.122Z,4.56
2017-05-15T15:10:28.066Z,5.58
2017-05-15T15:12:57.062Z,7.56
2017-05-15T15:15:26.793Z,3.68
2017-05-15T15:17:55.742Z,5.14
2017-05-15T15:20:25.391Z,5.50
2017-05-15T15:22:54.321Z,6.16
2017-05-15T15:25:23.233Z,3.70
2017-05-15T15:27:52.889Z,5.08
2017-05-15T15:30:22.411Z,5.36
2017-05-15T15:32:51.303Z,3.88
2017-05-15T15:35:20.203Z,5.80
2017-05-15T15:37:49.240Z,4.22
2017-05-15T15:40:18.240Z,6.94
2017-05-15T15:42:47.862Z,6.04
2017-05-15T15:45:16.781Z,4.04
2017-05-15T15:47:45.692Z,4.02
2017-05-15T15:50:14.578Z,6.34
2017-05-15T15:52:43.608Z,7.98
2017-05-15T15:55:12.508Z,4.64
2017-05-15T15:57:41.398Z,3.50
2017-05-15T16:00:10.426Z,4.20
2017-05-15T16:02:39.331Z,4.24
2017-05-15T16:05:08.237Z,5.50
2017-05-15T16:07:37.934Z,3.92
2017-05-15T16:10:06.798Z,5.16
2017-05-15T16:12:35.773Z,7.46
2017-05-15T16:15:04.727Z,6.58
2017-05-15T16:17:33.606Z,3.32
2017-05-15T16:20:02.708Z,3.20
2017-05-15T16:22:31.639Z,3.56
2017-05-15T16:25:01.263Z,6.94
2017-05-15T16:27:30.175Z,3.50
2017-05-15T16:29:59.106Z,3.80
2017-05-15T16:32:28.855Z,4.02
2017-05-15T16:34:58.486Z,6.84
2017-05-15T16:37:27.403Z,3.32
2017-05-15T16:39:56.336Z,3.44
2017-05-15T16:42:25.977Z,3.48
2017-05-15T16:44:54.894Z,3.84
2017-05-15T16:47:23.858Z,3.94
2017-05-15T16:49:52.775Z,3.20
2017-05-15T16:52:21.686Z,3.04
2017-05-15T16:54:51.364Z,3.46
2017-05-15T16:57:20.312Z,3.66
2017-05-15T16:59:49.211Z,4.24
2017-05-15T17:02:18.224Z,3.24
2017-05-15T17:04:47.135Z,5.16
2017-05-15T17:07:16.065Z,3.52
2017-05-15T17:09:45.899Z,2.77
2017-05-15T17:12:14.823Z,5.52
2017-05-15T17:14:43.715Z,2.34
2017-05-15T17:17:12.635Z,3.20
2017-05-15T17:19:41.537Z,2.92
2017-05-15T17:22:10.455Z,2.34
2017-05-15T17:24:39.375Z,3.52
2017-05-15T17:27:11.966Z,2.76
2017-05-15T17:29:41.463Z,3.66
2017-05-15T17:32:12.504Z,2.62
2017-05-15T17:34:42.425Z,2.90
2017-05-15T17:37:11.443Z,4.02
2017-05-15T17:39:40.403Z,2.66
2017-05-15T17:42:09.294Z,2.92
2017-05-15T17:44:38.222Z,4.26
2017-05-15T17:47:08.100Z,4.76
2017-05-15T17:49:37.059Z,3.78
2017-05-15T17:52:06.684Z,3.52
2017-05-15T17:54:35.593Z,3.00
2017-05-15T17:57:04.595Z,3.86
2017-05-15T17:59:33.511Z,2.56
2017-05-15T18:02:03.170Z,6.22
2017-05-15T18:04:32.128Z,2.80
2017-05-15T18:07:01.955Z,2.10
2017-05-15T18:09:30.865Z,4.20
2017-05-15T18:11:59.771Z,1.64
2017-05-15T18:14:28.710Z,3.68
2017-05-15T18:16:58.385Z,2.46
2017-05-15T18:19:27.278Z,2.62
2017-05-15T18:21:56.210Z,1.70
2017-05-15T18:24:25.102Z,1.70
2017-05-15T18:26:54.022Z,1.72
2017-05-15T18:29:23.005Z,4.24
2017-05-15T18:31:52.091Z,3.44
2017-05-15T18:34:20.989Z,2.52
2017-05-15T18:36:49.962Z,1.34
2017-05-15T18:39:18.878Z,2.96
2017-05-15T18:41:50.162Z,3.60
2017-05-15T18:44:20.107Z,2.38
2017-05-15T18:46:49.501Z,4.30
2017-05-15T18:49:18.504Z,1.70
2017-05-15T18:51:48.231Z,4.82
2017-05-15T18:54:17.934Z,4.70
2017-05-15T18:56:47.718Z,2.02
2017-05-15T18:59:17.423Z,4.42
2017-05-15T19:01:47.086Z,2.66
2017-05-15T19:04:16.041Z,1.68
2017-05-15T19:06:45.116Z,2.30
2017-05-15T19:09:14.776Z,3.40
2017-05-15T19:11:43.679Z,4.40
2017-05-15T19:14:12.818Z,5.54
2017-05-15T19:16:42.511Z,4.00
2017-05-15T19:19:12.254Z,2.04
2017-05-15T19:21:41.254Z,1.70
2017-05-15T19:24:11.008Z,1.72
2017-05-15T19:26:40.041Z,4.90
2017-05-15T19:29:08.964Z,3.24
2017-05-15T19:31:37.882Z,3.94
2017-05-15T19:34:06.811Z,3.44
2017-05-15T19:36:35.718Z,2.20
2017-05-15T19:39:04.889Z,2.40
2017-05-15T19:41:34.582Z,10.72
2017-05-15T19:44:04.300Z,4.72
2017-05-15T19:46:33.987Z,3.08
2017-05-15T19:49:02.950Z,3.14
2017-05-15T19:51:31.872Z,2.52
2017-05-15T19:54:00.878Z,5.36
2017-05-15T19:56:30.522Z,2.64
2017-05-15T19:58:59.431Z,2.40
2017-05-15T20:01:28.501Z,2.92
2017-05-15T20:03:58.219Z,2.44
2017-05-15T20:06:27.179Z,5.18
2017-05-15T20:08:56.141Z,2.52
2017-05-15T20:11:25.107Z,2.44
2017-05-15T20:13:54.078Z,5.14
2017-05-15T20:16:23.025Z,1.82
2017-05-15T20:18:52.024Z,2.98
2017-05-15T20:21:20.954Z,3.64
2017-05-15T20:23:49.879Z,4.82
2017-05-15T20:26:19.723Z,3.24
2017-05-15T20:28:48.655Z,3.22
2017-05-15T20:31:18.306Z,2.16
2017-05-15T20:33:47.207Z,6.04
2017-05-15T20:36:17.104Z,2.16
2017-05-15T20:38:47.118Z,4.78
2017-05-15T20:54:16.052Z,6.48
2017-05-15T20:56:46.556Z,5.56
2017-05-15T20:59:15.480Z,5.44
2017-05-15T21:01:44.447Z,2.74
2017-05-15T21:04:13.340Z,2.60
2017-05-15T21:06:43.062Z,5.60
2017-05-15T21:09:12.843Z,5.16
2017-05-15T21:11:41.746Z,4.04
2017-05-15T21:14:10.682Z,5.72
2017-05-15T21:16:40.313Z,4.20
2017-05-15T21:19:09.770Z,4.38
2017-05-15T21:21:38.662Z,5.62
2017-05-15T21:24:07.592Z,4.10
2017-05-15T21:26:36.519Z,3.44
2017-05-15T21:29:05.504Z,4.12
2017-05-15T21:31:34.401Z,3.86
2017-05-15T21:34:03.437Z,5.02
2017-05-15T21:36:33.107Z,3.74
2017-05-15T21:39:01.998Z,4.00
2017-05-15T21:41:30.925Z,5.24
2017-05-15T21:44:00.594Z,7.88
2017-05-15T21:46:29.494Z,5.02
2017-05-15T21:48:58.398Z,5.04
2017-05-15T21:51:27.305Z,4.94
2017-05-15T21:53:56.988Z,4.52
2017-05-15T21:56:25.922Z,3.56
2017-05-15T21:58:54.828Z,11.16
2017-05-15T22:01:23.717Z,5.64
2017-05-15T22:03:52.699Z,5.02
2017-05-15T22:06:21.622Z,4.44
2017-05-15T22:08:50.530Z,4.82
2017-05-15T22:11:19.462Z,3.64
2017-05-15T22:13:48.342Z,3.72
2017-05-15T22:16:17.392Z,3.98
2017-05-15T22:18:46.322Z,5.12
2017-05-15T22:21:15.215Z,4.54
2017-05-15T22:23:44.208Z,3.54
2017-05-15T22:26:13.176Z,5.90
2017-05-15T22:28:42.091Z,7.44
2017-05-15T22:31:10.966Z,7.96
2017-05-15T22:33:39.930Z,3.16
2017-05-15T22:36:08.826Z,2.76
2017-05-15T22:38:37.746Z,4.98
2017-05-15T22:41:06.729Z,5.42
2017-05-15T22:43:35.643Z,4.78
2017-05-15T22:46:04.559Z,2.84
2017-05-15T22:48:34.246Z,5.06
2017-05-15T22:51:03.139Z,3.92
2017-05-15T22:53:32.053Z,3.44
2017-05-15T22:56:01.815Z,5.90
2017-05-15T22:58:30.735Z,3.54
2017-05-15T23:01:00.391Z,3.26
2017-05-15T23:03:29.887Z,3.58
2017-05-15T23:05:58.770Z,5.38
2017-05-15T23:08:28.561Z,5.22
2017-05-15T23:10:58.296Z,3.52
2017-05-15T23:13:27.189Z,5.46
2017-05-15T23:15:56.082Z,4.20
2017-05-15T23:18:24.982Z,4.54
2017-05-15T23:20:53.874Z,3.60
2017-05-15T23:23:22.814Z,4.34
2017-05-15T23:25:51.861Z,3.50
2017-05-15T23:28:20.761Z,3.68
2017-05-15T23:30:49.642Z,6.38
2017-05-15T23:33:18.921Z,6.92
2017-05-15T23:35:48.590Z,3.66
2017-05-15T23:38:17.499Z,8.54
2017-05-15T23:40:47.199Z,3.66
2017-05-15T23:43:16.086Z,5.34
2017-05-15T23:45:44.990Z,4.20
2017-05-15T23:48:14.004Z,14.92
2017-05-15T23:50:42.872Z,4.56
2017-05-15T23:53:11.760Z,3.54
2017-05-15T23:55:40.714Z,3.48
2017-05-15T23:58:09.627Z,3.66
